createdAt,value
2018-05-16T00:01:17.518Z,98073.80
2018-05-16T00:03:45.177Z,98075.08
2018-05-16T00:06:12.748Z,98068.22
2018-05-16T00:08:40.359Z,98058.84
2018-05-16T00:11:07.902Z,98062.01
2018-05-16T00:13:35.442Z,98061.48
2018-05-16T00:16:03.077Z,98064.37
2018-05-16T00:18:30.615Z,98060.91
2018-05-16T00:20:58.180Z,98060.77
2018-05-16T00:23:25.730Z,98055.38
2018-05-16T00:25:53.328Z,98048.17
2018-05-16T00:28:20.873Z,98039.97
2018-05-16T00:30:48.471Z,98041.31
2018-05-16T00:33:16.054Z,98055.80
2018-05-16T00:35:43.606Z,98059.45
2018-05-16T00:38:11.202Z,98064.14
2018-05-16T00:40:38.947Z,98062.72
2018-05-16T00:43:06.518Z,98067.78
2018-05-16T00:45:34.077Z,98061.39
2018-05-16T00:48:01.615Z,98060.84
2018-05-16T00:50:29.149Z,98064.14
2018-05-16T00:52:56.686Z,98060.21
2018-05-16T00:55:24.209Z,98066.70
2018-05-16T00:57:51.744Z,98065.09
2018-05-16T01:00:19.431Z,98062.81
2018-05-16T01:02:46.965Z,98062.73
2018-05-16T01:05:14.655Z,98059.55
2018-05-16T01:07:42.218Z,98063.33
2018-05-16T01:10:09.745Z,98058.50
2018-05-16T01:12:37.308Z,98055.63
2018-05-16T01:15:05.887Z,98055.84
2018-05-16T01:17:33.470Z,98057.70
2018-05-16T01:20:00.992Z,98062.39
2018-05-16T01:22:28.560Z,98059.22
2018-05-16T01:24:56.265Z,98057.66
2018-05-16T01:27:24.066Z,98058.84
2018-05-16T01:29:51.649Z,98062.23
2018-05-16T01:32:19.252Z,98059.91
2018-05-16T01:34:46.783Z,98054.66
2018-05-16T01:37:14.436Z,98050.08
2018-05-16T01:39:41.992Z,98056.75
2018-05-16T01:42:09.575Z,98055.67
2018-05-16T01:44:37.253Z,98061.45
2018-05-16T01:47:04.795Z,98061.63
2018-05-16T01:49:32.329Z,98063.86
2018-05-16T01:51:59.874Z,98078.06
2018-05-16T01:54:27.441Z,98083.66
2018-05-16T01:56:54.955Z,98082.98
2018-05-16T01:59:22.505Z,98080.99
2018-05-16T02:01:50.082Z,98076.54
2018-05-16T02:04:17.646Z,98069.23
2018-05-16T02:06:45.233Z,98070.70
2018-05-16T02:09:12.785Z,98066.28
2018-05-16T02:11:40.343Z,98072.61
2018-05-16T02:14:07.941Z,98068.55
2018-05-16T02:16:36.441Z,98068.98
2018-05-16T02:19:03.984Z,98063.75
2018-05-16T02:21:31.601Z,98062.27
2018-05-16T02:23:59.820Z,98054.40
2018-05-16T02:26:27.399Z,98048.16
2018-05-16T02:28:54.918Z,98046.31
2018-05-16T02:31:22.498Z,98040.38
2018-05-16T02:33:50.048Z,98036.73
2018-05-16T02:36:17.582Z,98040.33
2018-05-16T02:38:45.239Z,98042.03
2018-05-16T02:41:12.799Z,98046.34
2018-05-16T02:43:40.336Z,98045.44
2018-05-16T02:46:07.901Z,98049.08
2018-05-16T02:48:35.457Z,98054.92
2018-05-16T02:51:03.009Z,98053.99
2018-05-16T02:53:30.575Z,98040.58
2018-05-16T02:55:58.237Z,98035.23
2018-05-16T02:58:25.816Z,98030.66
2018-05-16T03:00:53.384Z,98025.17
2018-05-16T03:03:21.007Z,98031.05
2018-05-16T03:05:48.899Z,98029.16
2018-05-16T03:08:16.513Z,98037.36
2018-05-16T03:10:44.134Z,98035.52
2018-05-16T03:13:11.696Z,98041.23
2018-05-16T03:15:39.239Z,98033.42
2018-05-16T03:18:06.791Z,98033.00
2018-05-16T03:20:34.362Z,98033.52
2018-05-16T03:23:01.930Z,98031.30
2018-05-16T03:25:29.550Z,98030.83
2018-05-16T03:27:57.347Z,98033.95
2018-05-16T03:30:25.061Z,98035.66
2018-05-16T03:32:52.612Z,98038.25
2018-05-16T03:35:20.176Z,98037.40
2018-05-16T03:37:47.709Z,98033.81
2018-05-16T03:40:15.245Z,98039.23
2018-05-16T03:42:42.815Z,98043.47
2018-05-16T03:45:10.366Z,98033.41
2018-05-16T03:47:37.896Z,98037.72
2018-05-16T03:50:05.455Z,98035.96
2018-05-16T03:52:33.016Z,98041.03
2018-05-16T03:55:00.592Z,98041.89
2018-05-16T03:57:40.162Z,98035.99
2018-05-16T04:00:19.641Z,98038.77
2018-05-16T04:02:58.997Z,98032.30
2018-05-16T04:05:26.562Z,98031.53
2018-05-16T04:07:54.092Z,98038.78
2018-05-16T04:10:21.664Z,98030.62
2018-05-16T04:12:49.236Z,98029.81
2018-05-16T04:15:16.754Z,98035.20
2018-05-16T04:17:44.306Z,98031.27
2018-05-16T04:20:11.851Z,98026.27
2018-05-16T04:22:39.378Z,98030.08
2018-05-16T04:25:07.956Z,98032.52
2018-05-16T04:27:35.526Z,98025.20
2018-05-16T04:30:03.409Z,98032.34
2018-05-16T04:32:31.031Z,98034.89
2018-05-16T04:34:58.578Z,98036.09
2018-05-16T04:37:26.164Z,98039.67
2018-05-16T04:39:53.707Z,98034.16
2018-05-16T04:42:21.328Z,98029.92
2018-05-16T04:44:48.865Z,98038.95
2018-05-16T04:47:16.419Z,98029.69
2018-05-16T04:49:43.973Z,98032.08
2018-05-16T04:52:11.525Z,98032.84
2018-05-16T04:54:39.176Z,98033.86
2018-05-16T04:57:06.954Z,98032.54
2018-05-16T04:59:34.885Z,98035.19
2018-05-16T05:02:02.432Z,98026.31
2018-05-16T05:04:29.999Z,98027.28
2018-05-16T05:06:57.524Z,98031.27
2018-05-16T05:09:25.241Z,98033.27
2018-05-16T05:11:52.860Z,98025.67
2018-05-16T05:14:20.455Z,98031.89
2018-05-16T05:16:48.012Z,98030.61
2018-05-16T05:19:15.568Z,98027.46
2018-05-16T05:21:43.247Z,98025.17
2018-05-16T05:24:10.810Z,98028.45
2018-05-16T05:26:38.367Z,98030.83
2018-05-16T05:29:05.917Z,98026.42
2018-05-16T05:31:33.636Z,98033.45
2018-05-16T05:34:01.232Z,98021.20
2018-05-16T05:36:28.804Z,98029.25
2018-05-16T05:38:56.362Z,98027.48
2018-05-16T05:41:24.708Z,98020.92
2018-05-16T05:43:52.260Z,98020.09
2018-05-16T05:46:19.790Z,98022.77
2018-05-16T05:48:47.460Z,98027.80
2018-05-16T05:51:14.999Z,98020.84
2018-05-16T05:53:42.591Z,98019.95
2018-05-16T05:56:10.267Z,98025.73
2018-05-16T05:58:37.797Z,98025.13
2018-05-16T06:01:05.337Z,98026.87
2018-05-16T06:03:32.952Z,98026.42
2018-05-16T06:06:00.530Z,98030.17
2018-05-16T06:08:28.088Z,98021.71
2018-05-16T06:10:55.650Z,98031.98
2018-05-16T06:13:23.257Z,98016.31
2018-05-16T06:15:50.886Z,98022.80
2018-05-16T06:18:18.497Z,98021.53
2018-05-16T06:20:47.051Z,98022.72
2018-05-16T06:23:14.611Z,98022.22
2018-05-16T06:25:42.174Z,98017.08
2018-05-16T06:28:09.912Z,98018.32
2018-05-16T06:30:37.578Z,98020.88
2018-05-16T06:33:05.075Z,98018.30
2018-05-16T06:35:32.633Z,98017.89
2018-05-16T06:38:00.175Z,98011.73
2018-05-16T06:40:28.835Z,98020.34
2018-05-16T06:42:56.467Z,98012.89
2018-05-16T06:45:24.039Z,98010.89
2018-05-16T06:47:51.571Z,98015.96
2018-05-16T06:50:19.180Z,98009.84
2018-05-16T06:52:46.755Z,98006.67
2018-05-16T06:55:14.368Z,98005.02
2018-05-16T06:57:43.635Z,98007.38
2018-05-16T07:00:11.185Z,98007.05
2018-05-16T07:02:38.716Z,98010.54
2018-05-16T07:05:06.263Z,98013.67
2018-05-16T07:07:34.008Z,98017.36
2018-05-16T07:10:01.593Z,98018.00
2018-05-16T07:12:29.153Z,98024.09
2018-05-16T07:14:57.136Z,98025.59
2018-05-16T07:17:24.711Z,98022.75
2018-05-16T07:19:52.293Z,98026.97
2018-05-16T07:22:19.906Z,98030.22
2018-05-16T07:24:47.541Z,98032.43
2018-05-16T07:27:15.078Z,98039.52
2018-05-16T07:29:43.544Z,98040.78
2018-05-16T07:32:11.125Z,98039.20
2018-05-16T07:34:38.679Z,98038.02
2018-05-16T07:37:06.282Z,98038.97
2018-05-16T07:39:33.798Z,98044.91
2018-05-16T07:42:01.382Z,98045.47
2018-05-16T07:44:29.080Z,98049.40
2018-05-16T07:46:57.635Z,98051.50
2018-05-16T07:49:25.181Z,98056.56
2018-05-16T07:51:53.531Z,98052.99
2018-05-16T07:54:21.090Z,98053.03
2018-05-16T07:56:48.616Z,98051.44
2018-05-16T07:59:16.204Z,98060.52
2018-05-16T08:01:43.760Z,98059.97
2018-05-16T08:04:11.325Z,98070.23
2018-05-16T08:06:39.088Z,98074.48
2018-05-16T08:09:06.641Z,98076.42
2018-05-16T08:11:34.212Z,98077.63
2018-05-16T08:14:01.763Z,98079.44
2018-05-16T08:16:29.500Z,98086.38
2018-05-16T08:18:57.048Z,98082.70
2018-05-16T08:21:24.595Z,98076.09
2018-05-16T08:23:52.128Z,98076.38
2018-05-16T08:26:19.674Z,98074.89
2018-05-16T08:28:47.368Z,98076.69
2018-05-16T08:31:14.963Z,98079.57
2018-05-16T08:33:42.673Z,98079.39
2018-05-16T08:36:10.342Z,98087.16
2018-05-16T08:38:37.850Z,98081.61
2018-05-16T08:41:05.498Z,98081.48
2018-05-16T08:43:33.207Z,98080.20
2018-05-16T08:46:00.708Z,98083.09
2018-05-16T08:48:28.242Z,98092.02
2018-05-16T08:51:05.626Z,98091.75
2018-05-16T08:53:33.145Z,98088.59
2018-05-16T08:56:00.730Z,98093.11
2018-05-16T08:58:28.313Z,98090.86
2018-05-16T09:00:55.938Z,98098.41
2018-05-16T09:03:23.444Z,98099.31
2018-05-16T09:05:51.031Z,98093.94
2018-05-16T09:08:19.647Z,98090.94
2018-05-16T09:10:47.192Z,98093.16
2018-05-16T09:13:14.897Z,98093.53
2018-05-16T09:15:42.435Z,98092.30
2018-05-16T09:18:09.983Z,98092.48
2018-05-16T09:20:37.512Z,98086.17
2018-05-16T09:23:05.048Z,98090.78
2018-05-16T09:25:32.590Z,98092.83
2018-05-16T09:28:00.125Z,98091.14
2018-05-16T09:30:27.717Z,98094.07
2018-05-16T09:32:55.258Z,98091.91
2018-05-16T09:35:22.835Z,98096.56
2018-05-16T09:37:50.540Z,98107.27
2018-05-16T09:40:18.325Z,98107.23
2018-05-16T09:42:45.831Z,98102.23
2018-05-16T09:45:13.645Z,98111.59
2018-05-16T09:47:41.161Z,98112.66
2018-05-16T09:50:08.853Z,98108.33
2018-05-16T09:52:36.393Z,98110.05
2018-05-16T09:55:04.652Z,98113.97
2018-05-16T09:57:32.184Z,98112.41
2018-05-16T09:59:59.800Z,98122.75
2018-05-16T10:02:27.327Z,98119.97
2018-05-16T10:04:54.961Z,98121.48
2018-05-16T10:07:22.685Z,98129.92
2018-05-16T10:09:50.285Z,98127.56
2018-05-16T10:12:18.213Z,98125.08
2018-05-16T10:14:45.768Z,98130.92
2018-05-16T10:17:13.353Z,98134.26
2018-05-16T10:19:41.065Z,98133.29
2018-05-16T10:22:08.646Z,98137.84
2018-05-16T10:24:36.316Z,98141.11
2018-05-16T10:27:04.187Z,98140.05
2018-05-16T10:29:31.770Z,98147.55
2018-05-16T10:31:59.508Z,98141.89
2018-05-16T10:34:27.309Z,98140.34
2018-05-16T10:36:55.021Z,98140.11
2018-05-16T10:39:22.877Z,98147.72
2018-05-16T10:41:50.299Z,98147.77
2018-05-16T10:44:18.321Z,98155.48
2018-05-16T10:46:45.856Z,98148.73
2018-05-16T10:49:13.341Z,98147.61
2018-05-16T10:51:40.910Z,98152.09
2018-05-16T10:54:08.446Z,98146.34
2018-05-16T10:56:36.034Z,98151.82
2018-05-16T10:59:03.624Z,98149.23
2018-05-16T11:01:31.196Z,98152.95
2018-05-16T11:03:58.747Z,98161.17
2018-05-16T11:06:26.293Z,98160.28
2018-05-16T11:08:54.948Z,98163.26
2018-05-16T11:11:22.609Z,98165.17
2018-05-16T11:13:50.157Z,98162.58
2018-05-16T11:16:17.719Z,98159.42
2018-05-16T11:18:45.389Z,98163.42
2018-05-16T11:21:13.665Z,98161.86
2018-05-16T11:23:41.265Z,98153.42
2018-05-16T11:26:08.797Z,98150.48
2018-05-16T11:28:36.343Z,98150.47
2018-05-16T11:31:03.945Z,98144.41
2018-05-16T11:33:31.495Z,98142.02
2018-05-16T11:35:59.101Z,98143.22
2018-05-16T11:38:26.632Z,98140.23
2018-05-16T11:40:54.179Z,98141.70
2018-05-16T11:43:21.768Z,98147.98
2018-05-16T11:45:49.924Z,98145.48
2018-05-16T11:48:17.466Z,98128.55
2018-05-16T11:50:45.062Z,98132.89
2018-05-16T11:53:13.476Z,98136.36
2018-05-16T11:55:41.002Z,98130.95
2018-05-16T11:58:08.705Z,98136.20
2018-05-16T12:00:36.857Z,98140.23
2018-05-16T12:03:09.068Z,98139.59
2018-05-16T12:05:41.782Z,98143.58
2018-05-16T12:08:10.961Z,98141.37
2018-05-16T12:10:50.209Z,98149.73
2018-05-16T12:13:18.433Z,98150.92
2018-05-16T12:15:46.060Z,98150.31
2018-05-16T12:18:13.769Z,98147.11
2018-05-16T12:20:41.633Z,98149.35
2018-05-16T12:23:09.276Z,98149.69
2018-05-16T12:25:36.800Z,98152.70
2018-05-16T12:28:04.369Z,98150.12
2018-05-16T12:30:32.487Z,98152.87
2018-05-16T12:33:00.830Z,98138.41
2018-05-16T12:35:30.256Z,98133.09
2018-05-16T12:37:58.023Z,98127.63
2018-05-16T12:40:25.797Z,98127.20
2018-05-16T12:43:05.173Z,98127.53
2018-05-16T12:45:33.391Z,98128.13
2018-05-16T12:48:00.984Z,98136.58
2018-05-16T12:50:28.922Z,98140.27
2018-05-16T12:52:56.552Z,98139.61
2018-05-16T12:55:24.340Z,98131.56
2018-05-16T12:57:51.970Z,98137.95
2018-05-16T13:00:19.740Z,98135.46
2018-05-16T13:02:47.436Z,98136.27
2018-05-16T13:05:15.214Z,98132.83
2018-05-16T13:07:42.796Z,98127.13
2018-05-16T13:10:10.537Z,98126.99
2018-05-16T13:12:38.103Z,98128.81
2018-05-16T13:15:05.629Z,98133.55
2018-05-16T13:17:33.154Z,98125.98
2018-05-16T13:20:00.678Z,98130.33
2018-05-16T13:22:28.272Z,98129.91
2018-05-16T13:24:56.356Z,98130.86
2018-05-16T13:27:24.791Z,98125.56
2018-05-16T13:29:52.835Z,98126.13
2018-05-16T13:32:20.473Z,98129.22
2018-05-16T13:34:48.021Z,98123.78
2018-05-16T13:37:15.521Z,98123.53
2018-05-16T13:39:43.044Z,98125.95
2018-05-16T13:42:10.789Z,98128.02
2018-05-16T13:44:38.338Z,98121.81
2018-05-16T13:47:06.060Z,98118.19
2018-05-16T13:49:33.724Z,98117.84
2018-05-16T13:52:01.280Z,98116.61
2018-05-16T13:54:28.847Z,98108.38
2018-05-16T13:56:56.588Z,98101.72
2018-05-16T13:59:24.828Z,98107.66
2018-05-16T14:22:05.831Z,98131.33
2018-05-16T14:24:54.895Z,98128.23
2018-05-16T14:27:22.592Z,98124.39
2018-05-16T14:29:50.123Z,98130.47
2018-05-16T14:32:17.712Z,98138.39
2018-05-16T14:34:45.223Z,98150.48
2018-05-16T14:37:12.680Z,98148.50
2018-05-16T14:39:40.132Z,98155.83
2018-05-16T14:42:07.619Z,98172.58
2018-05-16T14:44:35.082Z,98185.48
2018-05-16T14:47:03.532Z,98191.38
2018-05-16T14:49:31.065Z,98205.69
2018-05-16T14:51:58.515Z,98215.00
2018-05-16T14:54:26.848Z,98221.89
2018-05-16T14:56:54.325Z,98228.92
2018-05-16T14:59:21.800Z,98229.16
2018-05-16T15:01:49.308Z,98233.23
2018-05-16T15:04:23.407Z,98231.39
2018-05-16T15:06:50.905Z,98228.02
2018-05-16T15:09:21.486Z,98224.84
2018-05-16T15:11:49.083Z,98221.48
2018-05-16T15:17:07.651Z,98227.42
2018-05-16T15:19:35.214Z,98222.95
2018-05-16T15:22:02.994Z,98215.52
2018-05-16T15:24:30.483Z,98218.09
2018-05-16T15:26:57.953Z,98214.36
2018-05-16T15:29:25.435Z,98215.52
2018-05-16T15:31:53.144Z,98212.05
2018-05-16T15:57:11.240Z,98204.52
2018-05-16T15:59:38.704Z,98207.65
2018-05-16T16:02:06.259Z,98211.92
2018-05-16T16:04:33.737Z,98209.05
2018-05-16T16:07:01.205Z,98201.86
2018-05-16T16:09:28.649Z,98194.92
2018-05-16T16:11:56.178Z,98195.81
2018-05-16T16:14:23.666Z,98195.80
2018-05-16T16:16:51.672Z,98202.94
2018-05-16T16:19:19.123Z,98202.34
2018-05-16T16:21:46.628Z,98196.34
2018-05-16T16:44:20.149Z,98187.04
2018-05-16T16:49:38.262Z,98181.81
2018-05-16T17:00:38.569Z,98176.73
2018-05-16T17:08:47.955Z,98186.31
2018-05-16T17:11:15.428Z,98185.95
2018-05-16T17:13:42.906Z,98190.54
2018-05-16T17:16:10.422Z,98193.23
2018-05-16T17:18:37.886Z,98197.03
2018-05-16T17:26:47.149Z,98195.25
2018-05-16T17:49:09.648Z,98218.25
2018-05-16T17:51:39.000Z,98217.54
2018-05-16T18:05:29.224Z,98221.27
2018-05-16T18:07:56.712Z,98217.08
2018-05-16T18:16:17.349Z,98221.52
2018-05-16T18:18:44.924Z,98224.30
2018-05-16T18:21:12.415Z,98217.97
2018-05-16T18:23:39.911Z,98221.62
2018-05-16T18:26:07.368Z,98218.16
2018-05-16T18:31:25.604Z,98226.51
2018-05-16T18:33:53.062Z,98233.63
2018-05-16T18:36:20.524Z,98245.09
2018-05-16T18:50:12.711Z,98244.52
2018-05-16T18:52:40.157Z,98250.44
2018-05-16T18:55:07.701Z,98246.98
2018-05-16T18:57:35.169Z,98256.27
2018-05-16T19:00:02.713Z,98257.59
2018-05-16T19:02:30.391Z,98263.52
2018-05-16T19:04:57.844Z,98265.46
2018-05-16T19:07:25.302Z,98264.31
2018-05-16T19:09:52.761Z,98270.62
2018-05-16T19:12:20.219Z,98271.22
2018-05-16T19:14:47.699Z,98269.73
2018-05-16T19:17:15.152Z,98272.73
2018-05-16T19:25:23.615Z,98280.50
2018-05-16T19:27:51.120Z,98286.09
2018-05-16T19:30:18.691Z,98299.67
2018-05-16T19:32:46.163Z,98297.22
2018-05-16T19:35:13.628Z,98300.55
2018-05-16T19:37:41.095Z,98305.15
2018-05-16T19:40:08.575Z,98307.45
2018-05-16T19:42:36.141Z,98310.56
2018-05-16T19:45:03.686Z,98313.09
2018-05-16T19:47:31.151Z,98315.63
2018-05-16T19:49:58.669Z,98320.25
2018-05-16T19:52:26.395Z,98319.40
2018-05-16T19:54:53.969Z,98318.27
2018-05-16T19:57:21.430Z,98315.63
2018-05-16T19:59:48.943Z,98313.83
2018-05-16T20:02:16.475Z,98310.06
2018-05-16T20:04:43.979Z,98313.85
2018-05-16T20:07:11.489Z,98316.55
2018-05-16T20:09:39.053Z,98319.53
2018-05-16T20:12:06.593Z,98320.77
2018-05-16T20:14:34.196Z,98318.00
2018-05-16T20:17:01.635Z,98318.58
2018-05-16T20:19:29.215Z,98316.94
2018-05-16T20:21:56.708Z,98321.41
2018-05-16T20:24:24.192Z,98324.42
2018-05-16T20:26:51.667Z,98324.91
2018-05-16T20:29:19.322Z,98321.41
2018-05-16T20:31:46.794Z,98320.27
2018-05-16T20:34:14.287Z,98321.48
2018-05-16T20:36:41.740Z,98320.62
2018-05-16T20:39:09.318Z,98335.60
2018-05-16T20:41:36.797Z,98331.95
2018-05-16T20:44:04.280Z,98335.82
2018-05-16T20:46:31.742Z,98338.86
2018-05-16T20:48:59.233Z,98340.11
2018-05-16T20:51:26.863Z,98345.69
2018-05-16T20:53:54.337Z,98352.27
2018-05-16T20:56:21.913Z,98348.59
2018-05-16T20:58:49.458Z,98356.34
2018-05-16T21:01:16.898Z,98351.05
2018-05-16T21:03:44.368Z,98357.59
2018-05-16T21:06:11.856Z,98351.27
2018-05-16T22:03:09.039Z,98357.38
2018-05-16T22:05:36.510Z,98362.42
2018-05-16T22:08:04.015Z,98360.53
2018-05-16T22:10:31.555Z,98361.31
2018-05-16T22:15:50.503Z,98357.81
2018-05-16T22:18:17.971Z,98361.89
2018-05-16T22:20:45.437Z,98354.02
2018-05-16T22:23:12.919Z,98350.34
2018-05-16T22:25:40.426Z,98354.55
2018-05-16T22:28:07.887Z,98349.27
2018-05-16T22:33:31.380Z,98346.40
2018-05-16T22:36:04.493Z,98336.81
2018-05-16T22:38:37.556Z,98340.28
2018-05-16T22:41:10.672Z,98337.39
2018-05-16T22:43:38.512Z,98332.60
2018-05-16T22:46:05.973Z,98328.74
2018-05-16T22:48:33.440Z,98323.87
2018-05-16T22:51:00.908Z,98321.02
2018-05-16T22:53:28.367Z,98323.34
2018-05-16T22:55:55.868Z,98315.48
2018-05-16T22:58:26.226Z,98316.27
2018-05-16T23:00:53.702Z,98320.30
2018-05-16T23:03:21.208Z,98327.27
2018-05-16T23:08:39.075Z,98317.69
2018-05-16T23:19:40.888Z,98326.73
2018-05-16T23:22:08.375Z,98328.73
2018-05-16T23:24:35.834Z,98323.80
2018-05-16T23:27:03.306Z,98320.42
2018-05-16T23:29:30.764Z,98317.27
2018-05-16T23:31:58.263Z,98306.56
2018-05-16T23:34:25.723Z,98310.03
2018-05-16T23:36:53.187Z,98315.48
2018-05-16T23:59:19.956Z,98317.05
